createdAt,value
2022-11-24T00:00:11.619Z,2.30
2022-11-24T00:05:18.347Z,2.10
2022-11-24T00:10:24.983Z,2.20
2022-11-24T00:15:32.046Z,2.30
2022-11-24T00:20:39.091Z,2.30
2022-11-24T00:25:45.857Z,2.10
2022-11-24T00:30:53.102Z,2.20
2022-11-24T00:36:02.058Z,2.10
2022-11-24T00:41:09.367Z,2.10
2022-11-24T00:46:18.324Z,2.00
2022-11-24T00:51:30.212Z,2.10
2022-11-24T00:56:37.301Z,2.10
2022-11-24T01:01:44.204Z,2.00
2022-11-24T01:06:51.299Z,2.00
2022-11-24T01:12:04.477Z,2.00
2022-11-24T01:17:11.495Z,1.90
2022-11-24T01:22:19.143Z,1.90
2022-11-24T01:27:26.260Z,1.90
2022-11-24T01:32:34.232Z,1.90
2022-11-24T01:37:41.179Z,2.10
2022-11-24T01:42:54.075Z,2.10
2022-11-24T01:48:02.532Z,2.20
2022-11-24T01:53:10.423Z,2.40
2022-11-24T01:58:24.838Z,2.40
2022-11-24T02:03:35.888Z,2.40
2022-11-24T02:08:47.461Z,2.50
2022-11-24T02:13:56.567Z,2.40
2022-11-24T02:19:05.742Z,2.30
2022-11-24T02:24:22.653Z,2.20
2022-11-24T02:29:30.269Z,2.20
2022-11-24T02:34:37.007Z,2.00
2022-11-24T02:39:43.889Z,2.00
2022-11-24T02:44:55.078Z,2.00
2022-11-24T02:50:01.813Z,2.10
2022-11-24T02:55:08.803Z,2.10
2022-11-24T03:00:16.414Z,2.20
2022-11-24T03:05:23.113Z,2.30
2022-11-24T03:10:29.827Z,2.30
2022-11-24T03:15:37.848Z,2.10
2022-11-24T03:20:44.654Z,2.10
2022-11-24T03:25:51.415Z,2.20
2022-11-24T03:30:58.196Z,2.10
2022-11-24T03:36:05.832Z,2.20
2022-11-24T03:41:12.834Z,2.30
2022-11-24T03:46:19.573Z,2.40
2022-11-24T03:51:26.309Z,2.40
2022-11-24T03:56:33.044Z,2.40
2022-11-24T04:01:40.064Z,2.40
2022-11-24T04:06:46.900Z,2.40
2022-11-24T04:12:11.300Z,2.50
2022-11-24T04:17:18.350Z,2.50
2022-11-24T04:22:25.607Z,2.50
2022-11-24T04:27:35.524Z,2.70
2022-11-24T04:32:42.768Z,2.60
2022-11-24T04:37:50.095Z,2.50
2022-11-24T04:42:58.667Z,2.70
2022-11-24T04:48:05.591Z,2.50
2022-11-24T04:53:14.079Z,2.70
2022-11-24T04:58:21.199Z,2.90
2022-11-24T05:03:28.280Z,2.70
2022-11-24T05:08:35.816Z,2.80
2022-11-24T05:13:42.762Z,2.60
2022-11-24T05:18:49.643Z,2.70
2022-11-24T05:23:56.500Z,2.80
2022-11-24T05:29:03.309Z,2.80
2022-11-24T05:34:10.414Z,2.80
2022-11-24T05:39:17.335Z,3.00
2022-11-24T05:44:24.333Z,3.10
2022-11-24T05:49:31.404Z,3.20
2022-11-24T05:54:38.174Z,3.20
2022-11-24T05:59:45.288Z,3.10
2022-11-24T06:04:52.350Z,3.10
2022-11-24T06:09:59.935Z,3.10
2022-11-24T06:15:08.967Z,3.10
2022-11-24T06:20:16.669Z,3.10
2022-11-24T06:25:23.578Z,3.00
2022-11-24T06:30:30.491Z,2.90
2022-11-24T06:35:37.259Z,2.90
2022-11-24T06:40:44.728Z,2.80
2022-11-24T06:45:56.177Z,3.20
2022-11-24T06:51:09.707Z,3.10
2022-11-24T06:56:20.809Z,3.10
2022-11-24T07:01:30.401Z,3.20
2022-11-24T07:06:41.034Z,3.10
2022-11-24T07:11:48.225Z,3.10
2022-11-24T07:16:55.363Z,2.90
2022-11-24T07:22:02.449Z,2.70
2022-11-24T07:27:09.719Z,2.70
2022-11-24T07:32:17.654Z,2.90
2022-11-24T07:37:30.865Z,2.90
2022-11-24T07:42:33.344Z,3.10
2022-11-24T07:47:44.077Z,3.30
2022-11-24T07:52:51.400Z,3.60
2022-11-24T07:58:03.319Z,3.60
2022-11-24T08:03:10.487Z,3.70
2022-11-24T08:08:20.284Z,4.00
2022-11-24T08:13:27.236Z,4.00
2022-11-24T08:18:34.928Z,4.00
2022-11-24T08:23:42.094Z,4.20
2022-11-24T08:28:52.236Z,4.40
2022-11-24T08:34:00.595Z,3.80
2022-11-24T08:39:08.007Z,4.30
2022-11-24T08:44:16.973Z,4.00
2022-11-24T08:49:24.449Z,4.70
2022-11-24T08:54:32.074Z,4.30
2022-11-24T08:59:38.928Z,4.50
2022-11-24T09:04:47.660Z,4.50
2022-11-24T09:09:54.604Z,4.40
2022-11-24T09:15:02.002Z,4.60
2022-11-24T09:20:09.938Z,4.70
2022-11-24T09:25:17.540Z,4.70
2022-11-24T09:30:25.389Z,4.60
2022-11-24T09:35:32.239Z,4.70
2022-11-24T09:40:39.372Z,4.60
2022-11-24T09:46:05.847Z,4.80
2022-11-24T09:51:16.742Z,5.00
2022-11-24T09:56:27.672Z,5.50
2022-11-24T10:01:41.723Z,5.70
2022-11-24T10:07:21.242Z,5.40
2022-11-24T10:12:41.623Z,5.50
2022-11-24T10:17:59.044Z,6.20
2022-11-24T10:23:58.774Z,5.70
2022-11-24T10:29:10.010Z,5.70
2022-11-24T10:34:32.855Z,5.70
2022-11-24T10:39:47.123Z,5.60
2022-11-24T10:45:15.657Z,5.90
2022-11-24T10:50:40.478Z,6.00
2022-11-24T10:56:03.290Z,6.10
2022-11-24T11:01:21.107Z,6.20
2022-11-24T11:06:33.380Z,6.20
2022-11-24T11:11:43.012Z,6.00
2022-11-24T11:16:58.287Z,5.80
2022-11-24T11:22:15.100Z,6.00
2022-11-24T11:27:26.860Z,6.30
2022-11-24T11:37:44.495Z,6.90
2022-11-24T11:43:21.151Z,6.80
2022-11-24T11:48:43.086Z,6.50
2022-11-24T11:54:00.897Z,6.40
2022-11-24T11:59:37.271Z,6.50
2022-11-24T12:05:09.398Z,6.80
2022-11-24T12:10:29.337Z,6.60
2022-11-24T12:15:58.307Z,6.10
2022-11-24T12:21:33.633Z,6.60
2022-11-24T12:27:08.745Z,6.70
2022-11-24T12:32:35.970Z,7.10
2022-11-24T12:38:32.273Z,6.70
2022-11-24T12:43:42.288Z,7.00
2022-11-24T12:49:17.718Z,6.70
2022-11-24T12:54:26.122Z,7.10
2022-11-24T13:00:10.257Z,7.60
2022-11-24T13:05:36.172Z,7.30
2022-11-24T13:10:55.877Z,7.10
2022-11-24T13:21:36.447Z,6.90
2022-11-24T13:26:52.288Z,7.50
2022-11-24T13:32:06.422Z,7.50
2022-11-24T13:37:29.045Z,7.20
2022-11-24T13:42:41.668Z,7.40
2022-11-24T13:47:47.850Z,7.40
2022-11-24T13:53:13.815Z,7.30
2022-11-24T13:58:27.878Z,7.40
2022-11-24T14:04:07.072Z,7.60
2022-11-24T14:08:54.539Z,7.60
2022-11-24T14:14:04.772Z,7.20
2022-11-24T14:19:15.959Z,7.00
2022-11-24T14:24:39.692Z,6.80
2022-11-24T14:29:55.723Z,6.70
2022-11-24T14:35:02.792Z,6.60
2022-11-24T14:40:14.452Z,6.40
2022-11-24T14:45:21.803Z,6.40
2022-11-24T14:50:28.961Z,6.30
2022-11-24T14:55:38.276Z,6.20
2022-11-24T15:00:45.442Z,6.30
2022-11-24T15:06:02.812Z,6.20
2022-11-24T15:11:10.721Z,6.00
2022-11-24T15:16:20.838Z,5.90
2022-11-24T15:21:38.733Z,6.00
2022-11-24T15:26:47.240Z,5.90
2022-11-24T15:31:54.397Z,5.90
2022-11-24T15:37:01.873Z,5.80
2022-11-24T15:42:10.968Z,5.70
2022-11-24T15:47:18.442Z,5.90
2022-11-24T15:52:25.464Z,5.80
2022-11-24T15:57:36.401Z,5.80
2022-11-24T16:02:43.278Z,5.70
2022-11-24T16:07:50.254Z,5.60
2022-11-24T16:12:57.348Z,5.80
2022-11-24T16:18:06.056Z,5.60
2022-11-24T16:23:12.899Z,5.70
2022-11-24T16:28:20.914Z,5.80
2022-11-24T16:33:30.284Z,5.90
2022-11-24T16:38:37.150Z,5.70
2022-11-24T16:43:44.179Z,5.80
2022-11-24T16:48:55.457Z,5.80
2022-11-24T16:54:04.762Z,5.90
2022-11-24T16:59:12.062Z,6.10
2022-11-24T17:04:19.750Z,5.80
2022-11-24T17:09:27.299Z,6.10
2022-11-24T17:14:34.789Z,6.20
2022-11-24T17:19:41.820Z,5.90
2022-11-24T17:24:48.909Z,5.80
2022-11-24T17:29:55.784Z,5.80
2022-11-24T17:35:03.109Z,5.70
2022-11-24T17:40:27.848Z,5.70
2022-11-24T17:45:19.827Z,5.80
2022-11-24T17:50:26.824Z,5.70
2022-11-24T17:55:33.729Z,5.70
2022-11-24T18:00:40.479Z,5.50
2022-11-24T18:05:47.500Z,5.20
2022-11-24T18:10:54.757Z,5.10
2022-11-24T18:16:08.003Z,5.20
2022-11-24T18:21:17.804Z,5.40
2022-11-24T18:26:25.890Z,5.30
2022-11-24T18:31:34.693Z,5.30
2022-11-24T18:36:42.330Z,5.20
2022-11-24T18:41:50.202Z,5.30
2022-11-24T18:46:58.119Z,5.40
2022-11-24T18:52:05.456Z,5.40
2022-11-24T18:57:14.463Z,5.30
2022-11-24T19:02:21.812Z,5.20
2022-11-24T19:07:28.693Z,5.10
2022-11-24T19:12:35.786Z,5.10
2022-11-24T19:17:45.155Z,5.10
2022-11-24T19:22:51.890Z,5.20
2022-11-24T19:27:59.526Z,5.00
2022-11-24T19:33:11.503Z,4.90
2022-11-24T19:38:18.423Z,4.80
2022-11-24T19:43:25.501Z,5.00
2022-11-24T19:48:42.000Z,5.00
2022-11-24T19:53:50.257Z,5.00
2022-11-24T20:12:18.899Z,4.90
2022-11-24T20:17:25.808Z,5.00
2022-11-24T20:22:32.861Z,4.80
2022-11-24T20:27:39.943Z,4.70
2022-11-24T20:32:46.719Z,4.60
2022-11-24T20:37:54.007Z,4.40
2022-11-24T20:43:00.867Z,4.40
2022-11-24T20:48:09.032Z,4.40
2022-11-24T20:53:15.846Z,4.70
2022-11-24T20:58:22.556Z,4.80
2022-11-24T21:03:29.490Z,4.90
2022-11-24T21:08:39.555Z,4.60
2022-11-24T21:13:49.075Z,4.50
2022-11-24T21:18:59.301Z,4.60
2022-11-24T21:24:15.176Z,4.80
2022-11-24T21:29:23.904Z,4.60
2022-11-24T21:34:30.605Z,4.80
2022-11-24T21:39:37.388Z,4.80
2022-11-24T21:44:44.069Z,4.80
2022-11-24T21:49:50.776Z,4.70
2022-11-24T21:54:57.523Z,4.60
2022-11-24T22:00:06.280Z,4.70
2022-11-24T22:05:13.035Z,4.50
2022-11-24T22:10:19.775Z,4.50
2022-11-24T22:15:26.502Z,4.50
2022-11-24T22:20:33.182Z,4.50
2022-11-24T22:25:39.960Z,4.50
2022-11-24T22:30:46.660Z,4.60
2022-11-24T22:36:01.661Z,4.60
2022-11-24T22:41:12.158Z,4.50
2022-11-24T22:46:22.920Z,4.40
2022-11-24T22:51:35.261Z,4.40
2022-11-24T22:56:42.349Z,4.50
2022-11-24T23:01:49.158Z,4.50
2022-11-24T23:06:56.137Z,4.40
2022-11-24T23:12:03.065Z,4.40
2022-11-24T23:17:10.270Z,4.40
2022-11-24T23:22:17.331Z,4.30
2022-11-24T23:27:24.192Z,4.10
2022-11-24T23:32:31.020Z,4.10
2022-11-24T23:38:06.065Z,4.00
2022-11-24T23:42:49.460Z,3.90
2022-11-24T23:47:56.821Z,3.90
2022-11-24T23:53:04.064Z,3.90
2022-11-24T23:58:11.069Z,3.80
